Great Neck Estates, New York
Current Conditions -  °F | °C
As of 3:51 PM on Saturday 22 Nov 2014 (Local Time) from KLGA Reporting Station
Broken Clouds Broken Clouds  
Wind Chill:   Ceiling: 7500
Heat Index:   Visibility: 10mi
Dew Point: -9°   Wind: 17mph
Humidity: 35%   Direction: 230°SW
Pressure: 30.27"   Gusts: 22mph
Location:  40.786°N, 73.7291°W
Report Text: KLGA 222051Z 23015G19KT 10SM BKN075 BKN260 06/M09 A3027 RMK AO2 SLP250 T00561089 56022
Loading
Personal Weather Stations






























Interactive Weather Map New forecast layout! Learn more

10-Day Weather Forecast

Advertisements
Track Severe Weather on mobile